sensor_id;sensor_type;location;lat;lon;timestamp;pressure;altitude;pressure_sealevel;temperature;humidity
15314;BME280;7757;52.626;4.746;2023-02-19T00:02:30;101529.88;;;14.96;67.32
15314;BME280;7757;52.626;4.746;2023-02-19T00:05:16;101534.19;;;14.97;66.87
15314;BME280;7757;52.626;4.746;2023-02-19T00:08:02;101532.75;;;14.95;67.50
15314;BME280;7757;52.626;4.746;2023-02-19T00:10:47;101531.06;;;14.94;67.10
15314;BME280;7757;52.626;4.746;2023-02-19T00:13:34;101537.09;;;14.96;67.52
15314;BME280;7757;52.626;4.746;2023-02-19T00:16:21;101537.09;;;14.96;67.33
15314;BME280;7757;52.626;4.746;2023-02-19T00:19:11;101531.69;;;14.89;67.54
15314;BME280;7757;52.626;4.746;2023-02-19T00:21:58;101547.03;;;14.95;66.76
15314;BME280;7757;52.626;4.746;2023-02-19T00:24:43;101552.63;;;14.94;67.39
15314;BME280;7757;52.626;4.746;2023-02-19T00:27:28;101540.81;;;14.95;67.44
15314;BME280;7757;52.626;4.746;2023-02-19T00:30:13;101546.41;;;14.93;67.41
15314;BME280;7757;52.626;4.746;2023-02-19T00:32:59;101549.50;;;14.90;66.84
15314;BME280;7757;52.626;4.746;2023-02-19T00:35:44;101541.44;;;14.90;66.67
15314;BME280;7757;52.626;4.746;2023-02-19T00:38:34;101546.59;;;14.92;66.96
15314;BME280;7757;52.626;4.746;2023-02-19T00:41:21;101547.84;;;14.89;67.30
15314;BME280;7757;52.626;4.746;2023-02-19T00:44:07;101557.19;;;14.93;67.00
15314;BME280;7757;52.626;4.746;2023-02-19T00:46:54;101558.22;;;14.92;66.86
15314;BME280;7757;52.626;4.746;2023-02-19T00:49:39;101547.63;;;14.91;66.97
15314;BME280;7757;52.626;4.746;2023-02-19T00:52:24;101552.81;;;14.92;67.05
15314;BME280;7757;52.626;4.746;2023-02-19T00:55:11;101548.03;;;14.88;67.04
15314;BME280;7757;52.626;4.746;2023-02-19T00:57:56;101564.44;;;14.93;67.02
15314;BME280;7757;52.626;4.746;2023-02-19T01:00:42;101554.91;;;14.90;67.55
15314;BME280;7757;52.626;4.746;2023-02-19T01:03:27;101555.91;;;14.89;67.71
15314;BME280;7757;52.626;4.746;2023-02-19T01:06:15;101562.97;;;14.90;67.04
15314;BME280;7757;52.626;4.746;2023-02-19T01:09:01;101566.28;;;14.92;67.91
15314;BME280;7757;52.626;4.746;2023-02-19T01:11:48;101570.22;;;14.90;66.79
15314;BME280;7757;52.626;4.746;2023-02-19T01:14:34;101562.13;;;14.90;67.11
15314;BME280;7757;52.626;4.746;2023-02-19T01:17:20;101560.47;;;14.89;67.79
15314;BME280;7757;52.626;4.746;2023-02-19T01:20:05;101574.56;;;14.91;67.83
15314;BME280;7757;52.626;4.746;2023-02-19T01:22:51;101570.00;;;14.91;66.72
15314;BME280;7757;52.626;4.746;2023-02-19T01:25:37;101579.94;;;14.91;66.71
15314;BME280;7757;52.626;4.746;2023-02-19T01:28:24;101587.00;;;14.92;66.97
15314;BME280;7757;52.626;4.746;2023-02-19T01:31:12;101580.16;;;14.89;68.18
15314;BME280;7757;52.626;4.746;2023-02-19T01:33:59;101586.56;;;14.88;68.06
15314;BME280;7757;52.626;4.746;2023-02-19T01:36:44;101573.06;;;14.82;67.38
15314;BME280;7757;52.626;4.746;2023-02-19T01:39:30;101578.69;;;14.87;67.78
15314;BME280;7757;52.626;4.746;2023-02-19T01:42:16;101575.59;;;14.90;68.10
15314;BME280;7757;52.626;4.746;2023-02-19T01:45:24;101570.41;;;14.88;68.13
15314;BME280;7757;52.626;4.746;2023-02-19T01:48:14;101574.53;;;14.84;67.46
15314;BME280;7757;52.626;4.746;2023-02-19T01:51:04;101584.91;;;14.87;67.13
15314;BME280;7757;52.626;4.746;2023-02-19T01:53:54;101582.78;;;14.83;68.08
15314;BME280;7757;52.626;4.746;2023-02-19T01:56:41;101591.31;;;14.86;67.75
15314;BME280;7757;52.626;4.746;2023-02-19T01:59:27;101594.22;;;14.85;68.18
15314;BME280;7757;52.626;4.746;2023-02-19T02:02:14;101584.84;;;14.81;67.82
15314;BME280;7757;52.626;4.746;2023-02-19T02:05:01;101600.41;;;14.85;67.27
15314;BME280;7757;52.626;4.746;2023-02-19T02:07:47;101592.53;;;14.84;67.85
15314;BME280;7757;52.626;4.746;2023-02-19T02:10:50;101586.72;;;14.80;67.12
15314;BME280;7757;52.626;4.746;2023-02-19T02:13:37;101578.25;;;14.83;67.32
15314;BME280;7757;52.626;4.746;2023-02-19T02:16:31;101597.94;;;14.84;67.61
15314;BME280;7757;52.626;4.746;2023-02-19T02:19:33;101588.19;;;14.83;67.52
15314;BME280;7757;52.626;4.746;2023-02-19T02:22:27;101592.53;;;14.84;67.03
15314;BME280;7757;52.626;4.746;2023-02-19T02:25:28;101596.06;;;14.84;67.54
15314;BME280;7757;52.626;4.746;2023-02-19T02:28:24;101599.16;;;14.81;67.10
15314;BME280;7757;52.626;4.746;2023-02-19T02:31:19;101603.50;;;14.82;67.56
15314;BME280;7757;52.626;4.746;2023-02-19T02:34:11;101596.00;;;14.78;67.66
15314;BME280;7757;52.626;4.746;2023-02-19T02:36:59;101602.25;;;14.78;67.58
15314;BME280;7757;52.626;4.746;2023-02-19T02:39:45;101596.84;;;14.78;67.71
15314;BME280;7757;52.626;4.746;2023-02-19T02:42:32;101598.72;;;14.78;67.66
15314;BME280;7757;52.626;4.746;2023-02-19T02:45:26;101603.69;;;14.81;67.57
15314;BME280;7757;52.626;4.746;2023-02-19T02:48:29;101603.88;;;14.79;67.44
15314;BME280;7757;52.626;4.746;2023-02-19T02:51:20;101600.78;;;14.76;67.51
15314;BME280;7757;52.626;4.746;2023-02-19T02:54:10;101615.50;;;14.80;67.75
15314;BME280;7757;52.626;4.746;2023-02-19T02:57:26;101613.19;;;14.77;67.00
15314;BME280;7757;52.626;4.746;2023-02-19T03:00:12;101618.41;;;14.78;67.91
15314;BME280;7757;52.626;4.746;2023-02-19T03:02:58;101623.78;;;14.78;67.63
15314;BME280;7757;52.626;4.746;2023-02-19T03:05:44;101615.69;;;14.78;68.22
15314;BME280;7757;52.626;4.746;2023-02-19T03:08:40;101631.84;;;14.78;67.39
15314;BME280;7757;52.626;4.746;2023-02-19T03:11:27;101626.47;;;14.78;67.78
15314;BME280;7757;52.626;4.746;2023-02-19T03:14:36;101633.91;;;14.76;67.59
15314;BME280;7757;52.626;4.746;2023-02-19T03:17:44;101634.28;;;14.73;67.22
15314;BME280;7757;52.626;4.746;2023-02-19T03:20:51;101640.31;;;14.75;67.11
15314;BME280;7757;52.626;4.746;2023-02-19T03:23:41;101634.94;;;14.75;67.74
15314;BME280;7757;52.626;4.746;2023-02-19T03:26:45;101645.72;;;14.75;67.30
15314;BME280;7757;52.626;4.746;2023-02-19T03:29:37;101630.94;;;14.71;68.25
15314;BME280;7757;52.626;4.746;2023-02-19T03:32:27;101646.94;;;14.73;67.55
15314;BME280;7757;52.626;4.746;2023-02-19T03:35:16;101638.84;;;14.73;67.33
15314;BME280;7757;52.626;4.746;2023-02-19T03:38:08;101646.09;;;14.72;67.14
15314;BME280;7757;52.626;4.746;2023-02-19T03:40:59;101644.25;;;14.73;67.48
15314;BME280;7757;52.626;4.746;2023-02-19T03:43:51;101652.31;;;14.73;67.33
15314;BME280;7757;52.626;4.746;2023-02-19T03:46:44;101652.31;;;14.73;67.52
15314;BME280;7757;52.626;4.746;2023-02-19T03:49:34;101667.44;;;14.74;68.11
15314;BME280;7757;52.626;4.746;2023-02-19T03:52:24;101666.78;;;14.72;68.21
15314;BME280;7757;52.626;4.746;2023-02-19T03:55:16;101673.03;;;14.72;68.01
15314;BME280;7757;52.626;4.746;2023-02-19T03:58:07;101679.41;;;14.71;67.03
15314;BME280;7757;52.626;4.746;2023-02-19T04:00:56;101678.97;;;14.68;68.28
15314;BME280;7757;52.626;4.746;2023-02-19T04:03:46;101676.09;;;14.69;67.48
15314;BME280;7757;52.626;4.746;2023-02-19T04:06:33;101672.94;;;14.66;67.30
15314;BME280;7757;52.626;4.746;2023-02-19T04:09:22;101684.19;;;14.69;67.93
15314;BME280;7757;52.626;4.746;2023-02-19T04:12:11;101689.94;;;14.66;67.28
15314;BME280;7757;52.626;4.746;2023-02-19T04:15:01;101692.63;;;14.66;67.19
15314;BME280;7757;52.626;4.746;2023-02-19T04:17:53;101704.88;;;14.69;68.27
15314;BME280;7757;52.626;4.746;2023-02-19T04:20:42;101709.25;;;14.70;67.94
15314;BME280;7757;52.626;4.746;2023-02-19T04:23:32;101703.19;;;14.68;67.92
15314;BME280;7757;52.626;4.746;2023-02-19T04:26:20;101716.47;;;14.69;67.62
15314;BME280;7757;52.626;4.746;2023-02-19T04:29:07;101721.25;;;14.67;67.76
15314;BME280;7757;52.626;4.746;2023-02-19T04:31:53;101732.81;;;14.68;67.41
15314;BME280;7757;52.626;4.746;2023-02-19T04:34:38;101736.34;;;14.68;67.25
15314;BME280;7757;52.626;4.746;2023-02-19T04:37:24;101738.19;;;14.68;67.44
15314;BME280;7757;52.626;4.746;2023-02-19T04:40:10;101731.72;;;14.62;67.69
15314;BME280;7757;52.626;4.746;2023-02-19T04:42:55;101730.72;;;14.63;67.45
15314;BME280;7757;52.626;4.746;2023-02-19T04:45:42;101741.28;;;14.65;67.99
15314;BME280;7757;52.626;4.746;2023-02-19T04:48:27;101740.25;;;14.66;67.48
15314;BME280;7757;52.626;4.746;2023-02-19T04:51:15;101753.72;;;14.66;67.37
15314;BME280;7757;52.626;4.746;2023-02-19T04:54:00;101749.34;;;14.65;68.36
15314;BME280;7757;52.626;4.746;2023-02-19T04:56:46;101759.47;;;14.63;67.92
15314;BME280;7757;52.626;4.746;2023-02-19T04:59:31;101763.84;;;14.64;67.28
15314;BME280;7757;52.626;4.746;2023-02-19T05:02:18;101761.34;;;14.62;68.12
15314;BME280;7757;52.626;4.746;2023-02-19T05:05:03;101766.56;;;14.64;67.73
15314;BME280;7757;52.626;4.746;2023-02-19T05:07:48;101765.72;;;14.63;67.17
15314;BME280;7757;52.626;4.746;2023-02-19T05:10:34;101772.09;;;14.62;68.34
15314;BME280;7757;52.626;4.746;2023-02-19T05:13:19;101778.53;;;14.61;67.19
15314;BME280;7757;52.626;4.746;2023-02-19T05:16:06;101780.19;;;14.62;67.28
15314;BME280;7757;52.626;4.746;2023-02-19T05:18:55;101778.53;;;14.61;68.10
15314;BME280;7757;52.626;4.746;2023-02-19T05:21:40;101784.28;;;14.58;67.36
15314;BME280;7757;52.626;4.746;2023-02-19T05:24:25;101779.94;;;14.57;67.23
15314;BME280;7757;52.626;4.746;2023-02-19T05:27:11;101788.47;;;14.61;67.27
15314;BME280;7757;52.626;4.746;2023-02-19T05:29:56;101785.94;;;14.59;67.73
15314;BME280;7757;52.626;4.746;2023-02-19T05:32:42;101785.94;;;14.59;68.28
15314;BME280;7757;52.626;4.746;2023-02-19T05:35:28;101784.94;;;14.60;67.34
15314;BME280;7757;52.626;4.746;2023-02-19T05:38:15;101792.38;;;14.58;68.30
15314;BME280;7757;52.626;4.746;2023-02-19T05:41:08;101794.03;;;14.59;67.52
15314;BME280;7757;52.626;4.746;2023-02-19T05:43:55;101795.88;;;14.59;67.74
15314;BME280;7757;52.626;4.746;2023-02-19T05:46:41;101800.44;;;14.58;67.77
15314;BME280;7757;52.626;4.746;2023-02-19T05:49:26;101809.53;;;14.57;67.24
15314;BME280;7757;52.626;4.746;2023-02-19T05:52:13;101811.38;;;14.57;67.78
15314;BME280;7757;52.626;4.746;2023-02-19T05:54:59;101811.38;;;14.57;68.29
15314;BME280;7757;52.626;4.746;2023-02-19T05:57:45;101821.16;;;14.58;67.33
15314;BME280;7757;52.626;4.746;2023-02-19T06:00:31;101823.84;;;14.58;67.97
15314;BME280;7757;52.626;4.746;2023-02-19T06:03:17;101822.34;;;14.55;67.70
15314;BME280;7757;52.626;4.746;2023-02-19T06:06:02;101835.63;;;14.57;67.68
15314;BME280;7757;52.626;4.746;2023-02-19T06:08:49;101837.84;;;14.53;67.63
15314;BME280;7757;52.626;4.746;2023-02-19T06:11:35;101832.47;;;14.53;67.58
15314;BME280;7757;52.626;4.746;2023-02-19T06:14:20;101839.31;;;14.56;67.52
15314;BME280;7757;52.626;4.746;2023-02-19T06:17:06;101839.31;;;14.56;67.96
15314;BME280;7757;52.626;4.746;2023-02-19T06:19:51;101834.97;;;14.55;68.30
15314;BME280;7757;52.626;4.746;2023-02-19T06:22:36;101844.06;;;14.53;67.54
15314;BME280;7757;52.626;4.746;2023-02-19T06:25:23;101852.97;;;14.54;67.93
15314;BME280;7757;52.626;4.746;2023-02-19T06:28:10;101847.97;;;14.51;67.18
15314;BME280;7757;52.626;4.746;2023-02-19T06:30:57;101857.53;;;14.53;68.10
15314;BME280;7757;52.626;4.746;2023-02-19T06:33:42;101853.94;;;14.46;67.47
15314;BME280;7757;52.626;4.746;2023-02-19T06:36:27;101869.31;;;14.52;68.32
15314;BME280;7757;52.626;4.746;2023-02-19T06:39:14;101867.03;;;14.49;67.43
15314;BME280;7757;52.626;4.746;2023-02-19T06:42:00;101885.66;;;14.51;67.30
15314;BME280;7757;52.626;4.746;2023-02-19T06:44:46;101889.00;;;14.53;67.85
15314;BME280;7757;52.626;4.746;2023-02-19T06:47:31;101899.75;;;14.53;67.96
15314;BME280;7757;52.626;4.746;2023-02-19T06:50:17;101895.84;;;14.56;67.74
15314;BME280;7757;52.626;4.746;2023-02-19T06:53:03;101893.38;;;14.54;68.15
15314;BME280;7757;52.626;4.746;2023-02-19T06:55:54;101903.28;;;14.53;67.19
15314;BME280;7757;52.626;4.746;2023-02-19T06:58:40;101907.19;;;14.51;67.84
15314;BME280;7757;52.626;4.746;2023-02-19T07:01:27;101914.44;;;14.50;67.44
15314;BME280;7757;52.626;4.746;2023-02-19T07:04:12;101931.69;;;14.56;68.37
15314;BME280;7757;52.626;4.746;2023-02-19T07:06:58;101932.16;;;14.60;68.12
15314;BME280;7757;52.626;4.746;2023-02-19T07:09:46;101934.47;;;14.63;67.19
15314;BME280;7757;52.626;4.746;2023-02-19T07:12:31;101939.69;;;14.64;67.42
15314;BME280;7757;52.626;4.746;2023-02-19T07:15:20;101944.03;;;14.65;67.78
15314;BME280;7757;52.626;4.746;2023-02-19T07:18:05;101950.91;;;14.68;68.07
15314;BME280;7757;52.626;4.746;2023-02-19T07:20:53;101965.22;;;14.68;67.50
15314;BME280;7757;52.626;4.746;2023-02-19T07:23:39;101964.94;;;14.78;67.30
15314;BME280;7757;52.626;4.746;2023-02-19T07:26:24;101963.81;;;15.01;67.42
15314;BME280;7757;52.626;4.746;2023-02-19T07:29:09;101969.81;;;15.18;67.42
15314;BME280;7757;52.626;4.746;2023-02-19T07:31:56;101979.94;;;15.31;66.70
15314;BME280;7757;52.626;4.746;2023-02-19T07:34:41;101980.03;;;15.37;67.42
15314;BME280;7757;52.626;4.746;2023-02-19T07:37:27;101982.59;;;15.45;67.03
15314;BME280;7757;52.626;4.746;2023-02-19T07:40:12;101987.66;;;15.48;67.24
15314;BME280;7757;52.626;4.746;2023-02-19T07:42:58;101993.75;;;15.57;66.32
15314;BME280;7757;52.626;4.746;2023-02-19T07:45:44;102001.84;;;15.57;66.85
15314;BME280;7757;52.626;4.746;2023-02-19T07:48:30;101998.84;;;15.67;66.56
15314;BME280;7757;52.626;4.746;2023-02-19T07:51:18;102010.50;;;15.67;66.46
15314;BME280;7757;52.626;4.746;2023-02-19T07:54:03;102022.63;;;15.78;66.94
15314;BME280;7757;52.626;4.746;2023-02-19T07:56:49;102020.84;;;15.85;66.62
15314;BME280;7757;52.626;4.746;2023-02-19T07:59:34;102027.63;;;15.81;66.50
15314;BME280;7757;52.626;4.746;2023-02-19T08:02:20;102028.34;;;15.89;66.11
15314;BME280;7757;52.626;4.746;2023-02-19T08:05:24;102025.47;;;15.91;66.15
15314;BME280;7757;52.626;4.746;2023-02-19T08:08:12;102029.78;;;15.85;65.83
15314;BME280;7757;52.626;4.746;2023-02-19T08:11:01;102047.50;;;15.94;66.59
15314;BME280;7757;52.626;4.746;2023-02-19T08:14:04;102060.59;;;15.97;66.42
15314;BME280;7757;52.626;4.746;2023-02-19T08:16:50;102074.75;;;15.99;66.22
15314;BME280;7757;52.626;4.746;2023-02-19T08:19:35;102067.88;;;15.97;66.14
15314;BME280;7757;52.626;4.746;2023-02-19T08:22:22;102067.72;;;15.84;66.94
15314;BME280;7757;52.626;4.746;2023-02-19T08:25:08;102058.53;;;15.78;66.44
15314;BME280;7757;52.626;4.746;2023-02-19T08:27:53;102076.41;;;15.79;66.62
15314;BME280;7757;52.626;4.746;2023-02-19T08:30:40;102072.19;;;15.77;66.88
15314;BME280;7757;52.626;4.746;2023-02-19T08:33:27;102057.44;;;15.73;67.23
15314;BME280;7757;52.626;4.746;2023-02-19T08:36:13;102061.22;;;15.78;66.74
15314;BME280;7757;52.626;4.746;2023-02-19T08:39:00;102066.41;;;15.80;66.97
15314;BME280;7757;52.626;4.746;2023-02-19T08:41:45;102074.25;;;15.75;66.45
15314;BME280;7757;52.626;4.746;2023-02-19T08:44:31;102078.25;;;15.79;66.62
15314;BME280;7757;52.626;4.746;2023-02-19T08:47:17;102083.56;;;15.72;66.74
15314;BME280;7757;52.626;4.746;2023-02-19T08:50:02;102086.72;;;15.76;66.70
15314;BME280;7757;52.626;4.746;2023-02-19T08:52:48;102096.75;;;15.82;66.14
15314;BME280;7757;52.626;4.746;2023-02-19T08:55:36;102098.16;;;15.78;65.57
15314;BME280;7757;52.626;4.746;2023-02-19T08:58:22;102104.66;;;15.83;65.72
15314;BME280;7757;52.626;4.746;2023-02-19T09:01:10;102123.75;;;15.82;66.09
15314;BME280;7757;52.626;4.746;2023-02-19T09:03:56;102125.84;;;15.86;65.84
15314;BME280;7757;52.626;4.746;2023-02-19T09:06:41;102127.34;;;15.74;66.72
15314;BME280;7757;52.626;4.746;2023-02-19T09:09:27;102145.50;;;15.66;66.25
15314;BME280;7757;52.626;4.746;2023-02-19T09:12:14;102158.25;;;15.72;66.05
15314;BME280;7757;52.626;4.746;2023-02-19T09:14:59;102171.47;;;15.81;67.03
15314;BME280;7757;52.626;4.746;2023-02-19T09:17:44;102173.56;;;15.86;66.87
15314;BME280;7757;52.626;4.746;2023-02-19T09:20:34;102174.31;;;15.80;66.53
15314;BME280;7757;52.626;4.746;2023-02-19T09:23:19;102182.41;;;15.80;66.38
15314;BME280;7757;52.626;4.746;2023-02-19T09:26:06;102180.66;;;15.72;66.43
15314;BME280;7757;52.626;4.746;2023-02-19T09:28:54;102185.06;;;15.73;66.01
15314;BME280;7757;52.626;4.746;2023-02-19T09:31:39;102187.53;;;15.75;66.57
15314;BME280;7757;52.626;4.746;2023-02-19T09:34:25;102206.81;;;15.72;66.83
15314;BME280;7757;52.626;4.746;2023-02-19T09:37:10;102208.59;;;15.65;66.36
15314;BME280;7757;52.626;4.746;2023-02-19T09:39:56;102213.13;;;15.64;66.56
15314;BME280;7757;52.626;4.746;2023-02-19T09:42:42;102210.25;;;15.66;65.86
15314;BME280;7757;52.626;4.746;2023-02-19T09:45:29;102219.81;;;15.68;66.37
15314;BME280;7757;52.626;4.746;2023-02-19T09:48:14;102224.19;;;15.69;65.80
15314;BME280;7757;52.626;4.746;2023-02-19T09:51:00;102225.31;;;15.75;66.88
15314;BME280;7757;52.626;4.746;2023-02-19T09:53:48;102235.00;;;15.84;66.30
15314;BME280;7757;52.626;4.746;2023-02-19T09:56:35;102230.16;;;15.79;66.20
15314;BME280;7757;52.626;4.746;2023-02-19T09:59:22;102248.69;;;15.82;66.92
15314;BME280;7757;52.626;4.746;2023-02-19T10:02:13;102258.44;;;15.83;66.60
15314;BME280;7757;52.626;4.746;2023-02-19T10:05:00;102286.25;;;15.84;66.62
15314;BME280;7757;52.626;4.746;2023-02-19T10:07:50;102288.47;;;15.80;66.35
15314;BME280;7757;52.626;4.746;2023-02-19T10:10:36;102285.22;;;15.70;66.09
15314;BME280;7757;52.626;4.746;2023-02-19T10:13:26;102295.44;;;15.75;66.54
15314;BME280;7757;52.626;4.746;2023-02-19T10:16:16;102297.97;;;15.76;66.37
15314;BME280;7757;52.626;4.746;2023-02-19T10:19:05;102294.44;;;15.76;66.26
15314;BME280;7757;52.626;4.746;2023-02-19T10:21:50;102294.97;;;15.86;66.02
15314;BME280;7757;52.626;4.746;2023-02-19T10:24:35;102292.47;;;15.84;66.63
15314;BME280;7757;52.626;4.746;2023-02-19T10:27:21;102302.53;;;15.90;66.60
15314;BME280;7757;52.626;4.746;2023-02-19T10:30:17;102299.75;;;15.98;66.13
15314;BME280;7757;52.626;4.746;2023-02-19T10:33:09;102302.53;;;15.90;66.22
15314;BME280;7757;52.626;4.746;2023-02-19T10:35:57;102299.94;;;15.82;66.90
15314;BME280;7757;52.626;4.746;2023-02-19T10:38:46;102282.44;;;15.78;66.64
15314;BME280;7757;52.626;4.746;2023-02-19T10:41:32;102284.56;;;15.83;66.44
15314;BME280;7757;52.626;4.746;2023-02-19T10:44:21;102287.56;;;15.88;66.66
15314;BME280;7757;52.626;4.746;2023-02-19T10:47:15;102298.00;;;15.91;66.65
15314;BME280;7757;52.626;4.746;2023-02-19T10:50:01;102306.91;;;15.91;65.87
15314;BME280;7757;52.626;4.746;2023-02-19T10:52:52;102308.69;;;15.84;66.49
15314;BME280;7757;52.626;4.746;2023-02-19T10:55:39;102323.00;;;15.85;66.73
15314;BME280;7757;52.626;4.746;2023-02-19T10:58:25;102328.19;;;15.86;66.65
15314;BME280;7757;52.626;4.746;2023-02-19T11:01:22;102320.94;;;15.87;66.83
15314;BME280;7757;52.626;4.746;2023-02-19T11:04:15;102331.84;;;15.93;66.10
15314;BME280;7757;52.626;4.746;2023-02-19T11:07:07;102341.81;;;15.93;66.42
15314;BME280;7757;52.626;4.746;2023-02-19T11:09:54;102336.78;;;15.90;66.37
15314;BME280;7757;52.626;4.746;2023-02-19T11:12:46;102342.66;;;15.93;66.23
15314;BME280;7757;52.626;4.746;2023-02-19T11:15:33;102338.25;;;15.92;66.26
15314;BME280;7757;52.626;4.746;2023-02-19T11:18:22;102338.09;;;15.94;66.72
15314;BME280;7757;52.626;4.746;2023-02-19T11:21:23;102339.22;;;15.99;66.15
15314;BME280;7757;52.626;4.746;2023-02-19T11:24:22;102341.34;;;16.04;66.28
15314;BME280;7757;52.626;4.746;2023-02-19T11:27:17;102340.59;;;16.10;66.03
15314;BME280;7757;52.626;4.746;2023-02-19T11:33:24;102341.44;;;16.10;65.95
15314;BME280;7757;52.626;4.746;2023-02-19T11:36:24;102330.84;;;16.09;66.28
15314;BME280;7757;52.626;4.746;2023-02-19T11:39:19;102339.38;;;16.12;65.88
15314;BME280;7757;52.626;4.746;2023-02-19T11:42:27;102335.69;;;16.13;65.70
15314;BME280;7757;52.626;4.746;2023-02-19T11:45:32;102336.41;;;16.22;66.53
15314;BME280;7757;52.626;4.746;2023-02-19T11:48:29;102345.53;;;16.21;65.71
15314;BME280;7757;52.626;4.746;2023-02-19T11:54:38;102347.78;;;16.17;65.83
15314;BME280;7757;52.626;4.746;2023-02-19T11:57:39;102348.97;;;16.15;66.16
15314;BME280;7757;52.626;4.746;2023-02-19T12:00:26;102348.16;;;16.14;66.38
15314;BME280;7757;52.626;4.746;2023-02-19T12:03:20;102352.88;;;16.12;66.55
15314;BME280;7757;52.626;4.746;2023-02-19T12:06:18;102358.97;;;16.14;66.79
15314;BME280;7757;52.626;4.746;2023-02-19T12:09:35;102365.00;;;16.16;65.84
15314;BME280;7757;52.626;4.746;2023-02-19T12:12:31;102366.38;;;16.12;65.62
15314;BME280;7757;52.626;4.746;2023-02-19T12:15:32;102362.03;;;16.26;66.39
15314;BME280;7757;52.626;4.746;2023-02-19T12:18:48;102366.59;;;16.26;66.42
15314;BME280;7757;52.626;4.746;2023-02-19T12:21:45;102377.75;;;16.23;66.64
15314;BME280;7757;52.626;4.746;2023-02-19T12:25:20;102371.03;;;16.18;66.12
15314;BME280;7757;52.626;4.746;2023-02-19T12:31:37;102356.53;;;16.19;65.90
15314;BME280;7757;52.626;4.746;2023-02-19T12:34:34;102375.91;;;16.23;66.44
15314;BME280;7757;52.626;4.746;2023-02-19T12:37:36;102371.88;;;16.19;66.28
15314;BME280;7757;52.626;4.746;2023-02-19T12:40:36;102384.38;;;16.20;66.65
15314;BME280;7757;52.626;4.746;2023-02-19T12:43:23;102393.56;;;16.11;66.56
15314;BME280;7757;52.626;4.746;2023-02-19T12:46:12;102408.66;;;16.05;66.71
15314;BME280;7757;52.626;4.746;2023-02-19T12:49:05;102415.41;;;16.01;66.93
15314;BME280;7757;52.626;4.746;2023-02-19T12:51:57;102411.97;;;15.93;67.24
15314;BME280;7757;52.626;4.746;2023-02-19T12:54:45;102405.56;;;15.94;67.22
15314;BME280;7757;52.626;4.746;2023-02-19T12:57:34;102406.19;;;15.96;66.52
15314;BME280;7757;52.626;4.746;2023-02-19T13:00:29;102402.00;;;15.93;66.44
15314;BME280;7757;52.626;4.746;2023-02-19T13:03:21;102399.47;;;15.92;67.16
15314;BME280;7757;52.626;4.746;2023-02-19T13:06:23;102412.97;;;15.92;67.15
15314;BME280;7757;52.626;4.746;2023-02-19T13:09:13;102410.47;;;15.90;66.64
15314;BME280;7757;52.626;4.746;2023-02-19T13:12:03;102412.56;;;16.03;67.59
15314;BME280;7757;52.626;4.746;2023-02-19T13:14:55;102405.34;;;15.95;67.17
15314;BME280;7757;52.626;4.746;2023-02-19T13:17:44;102415.31;;;15.95;67.50
15314;BME280;7757;52.626;4.746;2023-02-19T13:20:34;102430.28;;;15.97;67.78
15314;BME280;7757;52.626;4.746;2023-02-19T13:23:24;102425.72;;;15.98;67.00
15314;BME280;7757;52.626;4.746;2023-02-19T13:26:42;102432.97;;;15.97;67.81
15314;BME280;7757;52.626;4.746;2023-02-19T13:29:49;102447.19;;;15.91;67.60
15314;BME280;7757;52.626;4.746;2023-02-19T13:32:52;102442.50;;;15.93;67.12
15314;BME280;7757;52.626;4.746;2023-02-19T13:35:58;102443.50;;;15.92;66.67
15314;BME280;7757;52.626;4.746;2023-02-19T13:38:50;102439.50;;;15.88;66.65
15314;BME280;7757;52.626;4.746;2023-02-19T13:41:39;102441.00;;;15.91;67.50
15314;BME280;7757;52.626;4.746;2023-02-19T13:44:27;102439.09;;;15.91;67.33
15314;BME280;7757;52.626;4.746;2023-02-19T13:47:46;102426.09;;;15.95;66.78
15314;BME280;7757;52.626;4.746;2023-02-19T13:50:33;102428.44;;;15.98;66.62
15314;BME280;7757;52.626;4.746;2023-02-19T13:53:54;102430.84;;;15.93;66.60
15314;BME280;7757;52.626;4.746;2023-02-19T13:56:41;102434.03;;;15.96;66.92
15314;BME280;7757;52.626;4.746;2023-02-19T13:59:35;102432.53;;;15.94;66.41
15314;BME280;7757;52.626;4.746;2023-02-19T14:02:30;102422.19;;;15.97;67.35
15314;BME280;7757;52.626;4.746;2023-02-19T14:08:55;102398.59;;;15.99;66.57
15314;BME280;7757;52.626;4.746;2023-02-19T14:12:03;102394.03;;;16.00;66.64
15314;BME280;7757;52.626;4.746;2023-02-19T14:14:50;102388.78;;;15.98;66.68
15314;BME280;7757;52.626;4.746;2023-02-19T14:17:38;102402.84;;;15.94;66.69
15314;BME280;7757;52.626;4.746;2023-02-19T14:20:40;102402.00;;;15.93;66.28
15314;BME280;7757;52.626;4.746;2023-02-19T14:23:28;102391.59;;;15.90;66.99
15314;BME280;7757;52.626;4.746;2023-02-19T14:26:15;102381.69;;;15.83;66.29
15314;BME280;7757;52.626;4.746;2023-02-19T14:29:01;102387.94;;;15.83;66.70
15314;BME280;7757;52.626;4.746;2023-02-19T14:31:46;102394.38;;;15.82;66.32
15314;BME280;7757;52.626;4.746;2023-02-19T14:34:32;102369.28;;;15.74;66.55
15314;BME280;7757;52.626;4.746;2023-02-19T14:37:19;102392.19;;;15.78;66.93
15314;BME280;7757;52.626;4.746;2023-02-19T14:40:05;102394.25;;;15.76;66.47
15314;BME280;7757;52.626;4.746;2023-02-19T14:42:54;102394.25;;;15.76;66.65
15314;BME280;7757;52.626;4.746;2023-02-19T14:45:44;102395.81;;;15.70;66.78
15314;BME280;7757;52.626;4.746;2023-02-19T14:48:33;102387.25;;;15.67;66.34
15314;BME280;7757;52.626;4.746;2023-02-19T14:51:27;102395.13;;;15.68;67.01
15314;BME280;7757;52.626;4.746;2023-02-19T14:54:16;102400.38;;;15.70;66.41
15314;BME280;7757;52.626;4.746;2023-02-19T14:57:04;102410.19;;;15.62;67.13
15314;BME280;7757;52.626;4.746;2023-02-19T14:59:53;102417.44;;;15.62;66.89
15314;BME280;7757;52.626;4.746;2023-02-19T15:02:41;102424.00;;;15.68;67.16
15314;BME280;7757;52.626;4.746;2023-02-19T15:05:28;102411.88;;;15.63;66.55
15314;BME280;7757;52.626;4.746;2023-02-19T15:08:17;102419.97;;;15.63;67.27
15314;BME280;7757;52.626;4.746;2023-02-19T15:11:08;102424.88;;;15.60;67.10
15314;BME280;7757;52.626;4.746;2023-02-19T15:13:57;102426.25;;;15.56;67.27